Grand Forks Air Force Base, ND

10:46 PM CDT on August 27, 2016 (GMT -0500)
Grand Forks Air Force Base | | Change Station

Elev 912 ft 47.96 °N, 97.40 °W | Updated 48 minutes ago

Clear
Clear
57 °F
Feels Like 57 °F
N
5
Wind Variable Wind from South

Today
High -- | Low -- °F
--% Chance of Precip.
Yesterday
High -- | Low -- °F
Precip. -- in
Pressure 29.97 in
Visibility 10.0 miles
Clouds Clear
Dew Point 55 °F
Humidity 93%
Rainfall 1.07 in
Snow Depth Not available.
6:41 AM 8:19 PM
Waning Crescent, 19% visible
METAR KRDR 280258Z AUTO 19004KT 10SM CLR 14/13 A2995 RMK AO2 DZB51E56 SLP148 T01380127 52017
Pressure 29.97 in
Visibility 10.0 miles
Clouds Clear
Dew Point 55 °F
Humidity 93%
Rainfall 1.07 in
Snow Depth Not available.
6:41 AM 8:19 PM
Waning Crescent, 19% visible
METAR KRDR 280258Z AUTO 19004KT 10SM CLR 14/13 A2995 RMK AO2 DZB51E56 SLP148 T01380127 52017

10-Day Weather Forecast

Almanac

Astronomy

Aug. 27, 2016 Rise Set
Actual Time
Civil Twilight
Nautical Twilight
Astronomical Twilight
Moon
Length of Visible Light
Length of Day
Tomorrow will be .
, % of the Moon is Illuminated

Today's Extremes

State Highs State Lows

Community

WunderPhotos

Upload Photos

1,935,519 photos uploaded!

WunderBlog® & News

Nearby

Air Quality

  Air Quality AQ Index Pollutant
Not available.

Snow Depth

Station Depth Elevation

Earthquake Activity

City Distance Mag. Time & Date
Minimum magnitude displayed is 2.5.

Coastal Water Temperatures

Place Temperature

Stations

Nearby Weather Stations

Station Location Temp. Windchill Dew Point Humidity Wind Precip. Elev Updated Type
                   

Watches & Warnings

There are currently no watches in effect.